sensor_id;sensor_type;location;lat;lon;timestamp;P1;durP1;ratioP1;P2;durP2;ratioP2
1010;SDS011;494;48.744;10.106;2022-12-07T00:56:31;21.83;;;11.13;;
1010;SDS011;494;48.744;10.106;2022-12-07T00:59:00;27.53;;;11.10;;
1010;SDS011;494;48.744;10.106;2022-12-07T01:01:32;24.07;;;11.60;;
1010;SDS011;494;48.744;10.106;2022-12-07T01:04:04;21.07;;;11.23;;
1010;SDS011;494;48.744;10.106;2022-12-07T01:06:32;20.33;;;10.33;;
1010;SDS011;494;48.744;10.106;2022-12-07T01:09:02;19.67;;;10.47;;
1010;SDS011;494;48.744;10.106;2022-12-07T01:11:32;22.73;;;11.13;;
1010;SDS011;494;48.744;10.106;2022-12-07T01:14:01;22.43;;;11.20;;
1010;SDS011;494;48.744;10.106;2022-12-07T01:16:31;22.30;;;10.93;;
1010;SDS011;494;48.744;10.106;2022-12-07T01:19:02;19.47;;;9.80;;
1010;SDS011;494;48.744;10.106;2022-12-07T01:21:32;22.10;;;11.70;;
1010;SDS011;494;48.744;10.106;2022-12-07T01:24:04;19.70;;;10.00;;
1010;SDS011;494;48.744;10.106;2022-12-07T01:26:38;19.53;;;10.80;;
1010;SDS011;494;48.744;10.106;2022-12-07T01:29:07;19.97;;;10.10;;
1010;SDS011;494;48.744;10.106;2022-12-07T01:31:36;18.40;;;10.03;;
1010;SDS011;494;48.744;10.106;2022-12-07T01:34:04;19.97;;;9.97;;
1010;SDS011;494;48.744;10.106;2022-12-07T01:36:34;21.17;;;11.03;;
1010;SDS011;494;48.744;10.106;2022-12-07T01:39:04;20.37;;;10.03;;
1010;SDS011;494;48.744;10.106;2022-12-07T01:41:35;19.90;;;10.70;;
1010;SDS011;494;48.744;10.106;2022-12-07T01:44:11;22.80;;;10.57;;
1010;SDS011;494;48.744;10.106;2022-12-07T01:46:48;19.63;;;10.43;;
1010;SDS011;494;48.744;10.106;2022-12-07T01:49:23;20.00;;;10.00;;
1010;SDS011;494;48.744;10.106;2022-12-07T01:52:00;18.07;;;9.73;;
1010;SDS011;494;48.744;10.106;2022-12-07T01:54:37;20.20;;;9.93;;
1010;SDS011;494;48.744;10.106;2022-12-07T01:57:08;19.20;;;10.33;;
1010;SDS011;494;48.744;10.106;2022-12-07T01:59:38;18.97;;;9.57;;
1010;SDS011;494;48.744;10.106;2022-12-07T02:02:18;21.00;;;11.10;;
1010;SDS011;494;48.744;10.106;2022-12-07T02:04:50;23.43;;;11.97;;
1010;SDS011;494;48.744;10.106;2022-12-07T02:07:21;24.90;;;12.30;;
1010;SDS011;494;48.744;10.106;2022-12-07T02:09:52;24.93;;;12.63;;
1010;SDS011;494;48.744;10.106;2022-12-07T02:12:22;25.17;;;12.40;;
1010;SDS011;494;48.744;10.106;2022-12-07T02:14:52;22.63;;;12.20;;
1010;SDS011;494;48.744;10.106;2022-12-07T02:17:23;23.80;;;12.50;;
1010;SDS011;494;48.744;10.106;2022-12-07T02:20:14;23.80;;;11.53;;
1010;SDS011;494;48.744;10.106;2022-12-07T02:26:11;24.67;;;12.70;;
1010;SDS011;494;48.744;10.106;2022-12-07T02:29:22;24.23;;;12.07;;
1010;SDS011;494;48.744;10.106;2022-12-07T02:32:00;25.37;;;12.47;;
1010;SDS011;494;48.744;10.106;2022-12-07T02:34:42;25.60;;;13.00;;
1010;SDS011;494;48.744;10.106;2022-12-07T02:37:19;25.60;;;13.10;;
1010;SDS011;494;48.744;10.106;2022-12-07T02:40:02;23.80;;;10.63;;
1010;SDS011;494;48.744;10.106;2022-12-07T02:42:38;27.17;;;13.20;;
1010;SDS011;494;48.744;10.106;2022-12-07T02:45:15;24.57;;;11.57;;
1010;SDS011;494;48.744;10.106;2022-12-07T02:47:51;26.67;;;12.47;;
1010;SDS011;494;48.744;10.106;2022-12-07T02:50:25;25.60;;;12.40;;
1010;SDS011;494;48.744;10.106;2022-12-07T02:52:55;23.53;;;12.30;;
1010;SDS011;494;48.744;10.106;2022-12-07T02:55:25;27.03;;;12.67;;
1010;SDS011;494;48.744;10.106;2022-12-07T02:58:06;25.40;;;12.07;;
1010;SDS011;494;48.744;10.106;2022-12-07T03:00:54;23.30;;;11.40;;
1010;SDS011;494;48.744;10.106;2022-12-07T03:03:36;23.90;;;12.50;;
1010;SDS011;494;48.744;10.106;2022-12-07T03:06:10;24.50;;;12.00;;
1010;SDS011;494;48.744;10.106;2022-12-07T03:08:51;22.80;;;11.73;;
1010;SDS011;494;48.744;10.106;2022-12-07T03:11:39;23.93;;;12.10;;
1010;SDS011;494;48.744;10.106;2022-12-07T03:14:15;22.53;;;11.70;;
1010;SDS011;494;48.744;10.106;2022-12-07T03:16:53;23.37;;;11.70;;
1010;SDS011;494;48.744;10.106;2022-12-07T03:19:28;21.90;;;11.03;;
1010;SDS011;494;48.744;10.106;2022-12-07T03:22:04;23.80;;;11.33;;
1010;SDS011;494;48.744;10.106;2022-12-07T03:24:39;24.00;;;11.70;;
1010;SDS011;494;48.744;10.106;2022-12-07T03:27:19;23.73;;;11.93;;
1010;SDS011;494;48.744;10.106;2022-12-07T03:29:54;22.67;;;11.80;;
1010;SDS011;494;48.744;10.106;2022-12-07T03:32:32;23.37;;;11.50;;
1010;SDS011;494;48.744;10.106;2022-12-07T03:35:07;22.10;;;11.20;;
1010;SDS011;494;48.744;10.106;2022-12-07T03:37:44;25.10;;;11.80;;
1010;SDS011;494;48.744;10.106;2022-12-07T03:40:19;23.80;;;11.53;;
1010;SDS011;494;48.744;10.106;2022-12-07T03:42:56;22.63;;;11.70;;
1010;SDS011;494;48.744;10.106;2022-12-07T03:45:29;22.60;;;11.00;;
1010;SDS011;494;48.744;10.106;2022-12-07T03:48:08;21.80;;;10.37;;
1010;SDS011;494;48.744;10.106;2022-12-07T03:50:54;19.80;;;9.77;;
1010;SDS011;494;48.744;10.106;2022-12-07T03:53:34;22.57;;;10.23;;
1010;SDS011;494;48.744;10.106;2022-12-07T03:56:10;22.27;;;10.67;;
1010;SDS011;494;48.744;10.106;2022-12-07T03:58:40;20.13;;;9.93;;
1010;SDS011;494;48.744;10.106;2022-12-07T04:01:10;19.80;;;9.77;;
1010;SDS011;494;48.744;10.106;2022-12-07T04:03:41;19.60;;;10.30;;
1010;SDS011;494;48.744;10.106;2022-12-07T04:06:09;24.03;;;11.63;;
1010;SDS011;494;48.744;10.106;2022-12-07T04:08:38;19.80;;;9.80;;
1010;SDS011;494;48.744;10.106;2022-12-07T04:11:07;21.30;;;10.40;;
1010;SDS011;494;48.744;10.106;2022-12-07T04:13:36;20.40;;;10.30;;
1010;SDS011;494;48.744;10.106;2022-12-07T04:16:18;20.67;;;10.37;;
1010;SDS011;494;48.744;10.106;2022-12-07T04:18:48;22.93;;;10.90;;
1010;SDS011;494;48.744;10.106;2022-12-07T04:21:17;23.73;;;11.37;;
1010;SDS011;494;48.744;10.106;2022-12-07T04:23:45;21.47;;;10.73;;
1010;SDS011;494;48.744;10.106;2022-12-07T04:26:14;21.97;;;11.03;;
1010;SDS011;494;48.744;10.106;2022-12-07T04:28:42;22.23;;;11.00;;
1010;SDS011;494;48.744;10.106;2022-12-07T04:31:11;21.30;;;10.83;;
1010;SDS011;494;48.744;10.106;2022-12-07T04:33:40;21.87;;;11.50;;
1010;SDS011;494;48.744;10.106;2022-12-07T04:36:10;21.30;;;10.57;;
1010;SDS011;494;48.744;10.106;2022-12-07T04:38:38;21.30;;;10.43;;
1010;SDS011;494;48.744;10.106;2022-12-07T04:41:08;21.70;;;10.40;;
1010;SDS011;494;48.744;10.106;2022-12-07T04:43:37;20.83;;;9.87;;
1010;SDS011;494;48.744;10.106;2022-12-07T04:46:05;22.17;;;9.60;;
1010;SDS011;494;48.744;10.106;2022-12-07T04:48:34;19.80;;;9.50;;
1010;SDS011;494;48.744;10.106;2022-12-07T04:51:03;20.73;;;10.00;;
1010;SDS011;494;48.744;10.106;2022-12-07T04:53:34;21.50;;;10.90;;
1010;SDS011;494;48.744;10.106;2022-12-07T04:56:03;21.93;;;10.03;;
1010;SDS011;494;48.744;10.106;2022-12-07T04:58:31;21.77;;;9.53;;
1010;SDS011;494;48.744;10.106;2022-12-07T05:01:01;22.20;;;10.87;;
1010;SDS011;494;48.744;10.106;2022-12-07T05:03:30;26.20;;;11.70;;
1010;SDS011;494;48.744;10.106;2022-12-07T05:05:59;22.17;;;10.83;;
1010;SDS011;494;48.744;10.106;2022-12-07T05:08:27;24.63;;;11.93;;
1010;SDS011;494;48.744;10.106;2022-12-07T05:10:57;27.27;;;12.77;;
1010;SDS011;494;48.744;10.106;2022-12-07T05:13:26;24.43;;;12.10;;
1010;SDS011;494;48.744;10.106;2022-12-07T05:15:55;26.30;;;12.57;;
1010;SDS011;494;48.744;10.106;2022-12-07T05:18:24;24.67;;;12.27;;
1010;SDS011;494;48.744;10.106;2022-12-07T05:20:53;25.40;;;12.30;;
1010;SDS011;494;48.744;10.106;2022-12-07T05:23:22;28.73;;;13.10;;
1010;SDS011;494;48.744;10.106;2022-12-07T05:25:51;25.83;;;12.10;;
1010;SDS011;494;48.744;10.106;2022-12-07T05:28:21;27.50;;;13.90;;
1010;SDS011;494;48.744;10.106;2022-12-07T05:30:49;27.57;;;13.17;;
1010;SDS011;494;48.744;10.106;2022-12-07T05:33:25;26.97;;;14.60;;
1010;SDS011;494;48.744;10.106;2022-12-07T05:35:53;27.70;;;14.10;;
1010;SDS011;494;48.744;10.106;2022-12-07T05:38:22;30.50;;;14.23;;
1010;SDS011;494;48.744;10.106;2022-12-07T05:40:51;26.67;;;13.20;;
1010;SDS011;494;48.744;10.106;2022-12-07T05:43:22;28.93;;;14.53;;
1010;SDS011;494;48.744;10.106;2022-12-07T05:45:50;28.77;;;14.40;;
1010;SDS011;494;48.744;10.106;2022-12-07T05:48:19;28.93;;;15.87;;
1010;SDS011;494;48.744;10.106;2022-12-07T05:50:48;29.37;;;14.93;;
1010;SDS011;494;48.744;10.106;2022-12-07T05:53:18;30.80;;;15.50;;
1010;SDS011;494;48.744;10.106;2022-12-07T05:55:48;32.83;;;16.77;;
1010;SDS011;494;48.744;10.106;2022-12-07T05:58:17;36.50;;;17.53;;
1010;SDS011;494;48.744;10.106;2022-12-07T06:01:05;33.30;;;16.27;;
1010;SDS011;494;48.744;10.106;2022-12-07T06:03:33;31.93;;;17.23;;
1010;SDS011;494;48.744;10.106;2022-12-07T06:06:02;28.63;;;14.90;;
1010;SDS011;494;48.744;10.106;2022-12-07T06:08:31;30.17;;;15.07;;
1010;SDS011;494;48.744;10.106;2022-12-07T06:11:00;26.93;;;14.40;;
1010;SDS011;494;48.744;10.106;2022-12-07T06:13:45;28.47;;;14.90;;
1010;SDS011;494;48.744;10.106;2022-12-07T06:16:15;31.07;;;14.97;;
1010;SDS011;494;48.744;10.106;2022-12-07T06:18:44;30.87;;;15.20;;
1010;SDS011;494;48.744;10.106;2022-12-07T06:21:13;32.83;;;16.80;;
1010;SDS011;494;48.744;10.106;2022-12-07T06:23:41;34.53;;;17.13;;
1010;SDS011;494;48.744;10.106;2022-12-07T06:26:10;31.53;;;17.53;;
1010;SDS011;494;48.744;10.106;2022-12-07T06:28:39;33.20;;;17.10;;
1010;SDS011;494;48.744;10.106;2022-12-07T06:31:10;36.60;;;18.23;;
1010;SDS011;494;48.744;10.106;2022-12-07T06:33:41;30.33;;;16.10;;
1010;SDS011;494;48.744;10.106;2022-12-07T06:36:10;25.77;;;13.27;;
1010;SDS011;494;48.744;10.106;2022-12-07T06:38:39;33.10;;;17.00;;
1010;SDS011;494;48.744;10.106;2022-12-07T06:41:07;31.63;;;16.10;;
1010;SDS011;494;48.744;10.106;2022-12-07T06:43:36;28.47;;;14.47;;
1010;SDS011;494;48.744;10.106;2022-12-07T06:46:05;30.20;;;13.97;;
1010;SDS011;494;48.744;10.106;2022-12-07T06:48:34;30.97;;;13.87;;
1010;SDS011;494;48.744;10.106;2022-12-07T06:51:04;27.87;;;13.73;;
1010;SDS011;494;48.744;10.106;2022-12-07T06:53:33;26.73;;;12.83;;
1010;SDS011;494;48.744;10.106;2022-12-07T06:56:02;28.00;;;13.70;;
1010;SDS011;494;48.744;10.106;2022-12-07T06:58:32;29.73;;;12.93;;
1010;SDS011;494;48.744;10.106;2022-12-07T07:01:00;30.33;;;14.40;;
1010;SDS011;494;48.744;10.106;2022-12-07T07:03:29;29.63;;;14.00;;
1010;SDS011;494;48.744;10.106;2022-12-07T07:05:58;28.73;;;14.03;;
1010;SDS011;494;48.744;10.106;2022-12-07T07:08:28;35.67;;;17.87;;
1010;SDS011;494;48.744;10.106;2022-12-07T07:10:57;28.23;;;13.97;;
1010;SDS011;494;48.744;10.106;2022-12-07T07:13:26;27.50;;;13.40;;
1010;SDS011;494;48.744;10.106;2022-12-07T07:15:55;28.33;;;13.40;;
1010;SDS011;494;48.744;10.106;2022-12-07T07:18:24;28.57;;;14.00;;
1010;SDS011;494;48.744;10.106;2022-12-07T07:20:54;28.63;;;13.90;;
1010;SDS011;494;48.744;10.106;2022-12-07T07:23:23;26.67;;;12.33;;
1010;SDS011;494;48.744;10.106;2022-12-07T07:25:54;27.50;;;12.63;;
1010;SDS011;494;48.744;10.106;2022-12-07T07:28:23;26.80;;;12.30;;
1010;SDS011;494;48.744;10.106;2022-12-07T07:30:52;27.50;;;13.27;;
1010;SDS011;494;48.744;10.106;2022-12-07T07:33:20;25.77;;;13.20;;
1010;SDS011;494;48.744;10.106;2022-12-07T07:35:49;26.27;;;12.30;;
1010;SDS011;494;48.744;10.106;2022-12-07T07:38:18;26.40;;;12.33;;
1010;SDS011;494;48.744;10.106;2022-12-07T07:40:47;26.17;;;12.03;;
1010;SDS011;494;48.744;10.106;2022-12-07T07:43:17;25.23;;;12.10;;
1010;SDS011;494;48.744;10.106;2022-12-07T07:45:45;23.20;;;11.50;;
1010;SDS011;494;48.744;10.106;2022-12-07T07:48:14;26.13;;;12.47;;
1010;SDS011;494;48.744;10.106;2022-12-07T07:50:43;24.87;;;12.17;;
1010;SDS011;494;48.744;10.106;2022-12-07T07:53:11;24.47;;;11.70;;
1010;SDS011;494;48.744;10.106;2022-12-07T07:55:40;29.13;;;13.10;;
1010;SDS011;494;48.744;10.106;2022-12-07T07:58:09;24.77;;;11.90;;
1010;SDS011;494;48.744;10.106;2022-12-07T08:00:39;26.40;;;12.83;;
1010;SDS011;494;48.744;10.106;2022-12-07T08:03:08;24.57;;;11.87;;
1010;SDS011;494;48.744;10.106;2022-12-07T08:05:36;28.50;;;13.70;;
1010;SDS011;494;48.744;10.106;2022-12-07T08:08:05;29.30;;;13.17;;
1010;SDS011;494;48.744;10.106;2022-12-07T08:10:34;24.77;;;12.43;;
1010;SDS011;494;48.744;10.106;2022-12-07T08:13:03;26.77;;;12.57;;
1010;SDS011;494;48.744;10.106;2022-12-07T08:15:40;25.50;;;12.90;;
1010;SDS011;494;48.744;10.106;2022-12-07T08:18:11;25.20;;;12.67;;
1010;SDS011;494;48.744;10.106;2022-12-07T08:20:41;26.50;;;13.20;;
1010;SDS011;494;48.744;10.106;2022-12-07T08:23:10;24.80;;;12.83;;
1010;SDS011;494;48.744;10.106;2022-12-07T08:25:39;23.40;;;12.47;;
1010;SDS011;494;48.744;10.106;2022-12-07T08:28:08;23.23;;;12.00;;
1010;SDS011;494;48.744;10.106;2022-12-07T08:30:37;22.83;;;10.80;;
1010;SDS011;494;48.744;10.106;2022-12-07T08:33:08;23.10;;;11.20;;
1010;SDS011;494;48.744;10.106;2022-12-07T08:35:37;20.83;;;10.27;;
1010;SDS011;494;48.744;10.106;2022-12-07T08:38:06;20.67;;;10.53;;
1010;SDS011;494;48.744;10.106;2022-12-07T08:40:35;19.93;;;9.70;;
1010;SDS011;494;48.744;10.106;2022-12-07T08:43:04;19.40;;;9.50;;
1010;SDS011;494;48.744;10.106;2022-12-07T08:45:32;16.30;;;7.70;;
1010;SDS011;494;48.744;10.106;2022-12-07T08:48:03;17.27;;;9.30;;
1010;SDS011;494;48.744;10.106;2022-12-07T08:50:39;19.93;;;8.43;;
1010;SDS011;494;48.744;10.106;2022-12-07T08:53:15;15.40;;;7.40;;
1010;SDS011;494;48.744;10.106;2022-12-07T08:55:44;14.20;;;6.53;;
1010;SDS011;494;48.744;10.106;2022-12-07T08:58:14;18.27;;;8.30;;
1010;SDS011;494;48.744;10.106;2022-12-07T09:00:43;15.83;;;6.50;;
1010;SDS011;494;48.744;10.106;2022-12-07T09:03:13;13.90;;;6.80;;
1010;SDS011;494;48.744;10.106;2022-12-07T09:05:41;15.80;;;6.60;;
1010;SDS011;494;48.744;10.106;2022-12-07T09:08:10;14.27;;;6.73;;
1010;SDS011;494;48.744;10.106;2022-12-07T09:10:39;13.90;;;6.07;;
1010;SDS011;494;48.744;10.106;2022-12-07T09:13:08;13.70;;;6.30;;
1010;SDS011;494;48.744;10.106;2022-12-07T09:15:36;12.57;;;5.67;;
1010;SDS011;494;48.744;10.106;2022-12-07T09:18:05;14.40;;;5.90;;
1010;SDS011;494;48.744;10.106;2022-12-07T09:20:35;15.37;;;6.40;;
1010;SDS011;494;48.744;10.106;2022-12-07T09:23:05;13.20;;;5.73;;
1010;SDS011;494;48.744;10.106;2022-12-07T09:25:34;13.07;;;5.43;;
1010;SDS011;494;48.744;10.106;2022-12-07T09:28:03;13.67;;;5.60;;
1010;SDS011;494;48.744;10.106;2022-12-07T09:30:31;13.80;;;5.97;;
1010;SDS011;494;48.744;10.106;2022-12-07T09:33:20;11.57;;;5.20;;
1010;SDS011;494;48.744;10.106;2022-12-07T09:35:51;11.30;;;4.90;;
1010;SDS011;494;48.744;10.106;2022-12-07T09:38:20;11.57;;;5.50;;
1010;SDS011;494;48.744;10.106;2022-12-07T09:40:50;12.27;;;5.40;;
1010;SDS011;494;48.744;10.106;2022-12-07T09:43:19;11.93;;;5.07;;
1010;SDS011;494;48.744;10.106;2022-12-07T09:45:51;13.63;;;5.60;;
1010;SDS011;494;48.744;10.106;2022-12-07T09:48:24;13.27;;;5.47;;
1010;SDS011;494;48.744;10.106;2022-12-07T09:51:00;11.50;;;4.97;;
1010;SDS011;494;48.744;10.106;2022-12-07T09:53:30;11.23;;;4.93;;
1010;SDS011;494;48.744;10.106;2022-12-07T09:56:04;12.40;;;5.63;;
1010;SDS011;494;48.744;10.106;2022-12-07T09:58:34;14.90;;;6.50;;
1010;SDS011;494;48.744;10.106;2022-12-07T10:01:05;13.17;;;5.93;;
1010;SDS011;494;48.744;10.106;2022-12-07T10:03:42;14.07;;;6.00;;
1010;SDS011;494;48.744;10.106;2022-12-07T10:06:19;15.10;;;6.53;;
1010;SDS011;494;48.744;10.106;2022-12-07T10:08:48;13.10;;;5.93;;
1010;SDS011;494;48.744;10.106;2022-12-07T10:11:17;13.47;;;5.70;;
1010;SDS011;494;48.744;10.106;2022-12-07T10:13:46;16.67;;;7.50;;
1010;SDS011;494;48.744;10.106;2022-12-07T10:16:35;15.53;;;7.20;;
1010;SDS011;494;48.744;10.106;2022-12-07T10:19:17;15.43;;;7.07;;
1010;SDS011;494;48.744;10.106;2022-12-07T10:22:02;16.20;;;6.60;;
1010;SDS011;494;48.744;10.106;2022-12-07T10:24:37;18.83;;;7.67;;
1010;SDS011;494;48.744;10.106;2022-12-07T10:27:17;14.57;;;6.60;;
1010;SDS011;494;48.744;10.106;2022-12-07T10:29:50;16.20;;;8.00;;
1010;SDS011;494;48.744;10.106;2022-12-07T10:32:28;17.20;;;7.40;;
1010;SDS011;494;48.744;10.106;2022-12-07T10:35:17;14.17;;;6.00;;
1010;SDS011;494;48.744;10.106;2022-12-07T10:37:52;14.03;;;5.73;;
1010;SDS011;494;48.744;10.106;2022-12-07T10:40:27;14.00;;;6.00;;
1010;SDS011;494;48.744;10.106;2022-12-07T10:43:01;16.60;;;6.50;;
1010;SDS011;494;48.744;10.106;2022-12-07T10:45:34;15.07;;;6.33;;
1010;SDS011;494;48.744;10.106;2022-12-07T10:48:30;13.20;;;6.47;;
1010;SDS011;494;48.744;10.106;2022-12-07T10:51:07;15.30;;;7.17;;
1010;SDS011;494;48.744;10.106;2022-12-07T10:53:52;14.63;;;5.97;;
1010;SDS011;494;48.744;10.106;2022-12-07T10:56:42;16.50;;;6.60;;
1010;SDS011;494;48.744;10.106;2022-12-07T10:59:41;13.90;;;6.63;;
1010;SDS011;494;48.744;10.106;2022-12-07T11:02:25;14.13;;;6.87;;
1010;SDS011;494;48.744;10.106;2022-12-07T11:05:15;13.60;;;5.83;;
1010;SDS011;494;48.744;10.106;2022-12-07T11:07:59;14.77;;;6.93;;
1010;SDS011;494;48.744;10.106;2022-12-07T11:10:42;13.77;;;7.03;;
1010;SDS011;494;48.744;10.106;2022-12-07T11:13:25;15.20;;;7.17;;
1010;SDS011;494;48.744;10.106;2022-12-07T11:16:07;15.30;;;7.63;;
1010;SDS011;494;48.744;10.106;2022-12-07T11:18:51;17.57;;;8.60;;
1010;SDS011;494;48.744;10.106;2022-12-07T11:21:45;17.77;;;7.60;;
1010;SDS011;494;48.744;10.106;2022-12-07T11:24:24;17.50;;;8.67;;
1010;SDS011;494;48.744;10.106;2022-12-07T11:27:07;18.60;;;8.10;;
1010;SDS011;494;48.744;10.106;2022-12-07T11:29:52;14.63;;;7.80;;
1010;SDS011;494;48.744;10.106;2022-12-07T11:32:43;14.57;;;7.27;;
1010;SDS011;494;48.744;10.106;2022-12-07T11:35:39;15.50;;;8.00;;
1010;SDS011;494;48.744;10.106;2022-12-07T11:38:21;15.03;;;7.67;;
1010;SDS011;494;48.744;10.106;2022-12-07T11:41:00;17.43;;;7.80;;
1010;SDS011;494;48.744;10.106;2022-12-07T11:43:50;15.53;;;7.20;;
1010;SDS011;494;48.744;10.106;2022-12-07T11:46:33;18.00;;;8.27;;
1010;SDS011;494;48.744;10.106;2022-12-07T11:49:14;17.13;;;7.00;;
1010;SDS011;494;48.744;10.106;2022-12-07T11:51:54;17.93;;;8.20;;
1010;SDS011;494;48.744;10.106;2022-12-07T11:54:29;15.13;;;7.10;;
1010;SDS011;494;48.744;10.106;2022-12-07T11:57:08;17.40;;;7.93;;
1010;SDS011;494;48.744;10.106;2022-12-07T11:59:47;16.30;;;7.37;;
1010;SDS011;494;48.744;10.106;2022-12-07T12:02:26;18.53;;;7.63;;
1010;SDS011;494;48.744;10.106;2022-12-07T12:05:06;13.90;;;6.63;;
1010;SDS011;494;48.744;10.106;2022-12-07T12:07:44;18.30;;;8.90;;
1010;SDS011;494;48.744;10.106;2022-12-07T12:10:44;15.10;;;7.73;;
1010;SDS011;494;48.744;10.106;2022-12-07T12:16:59;15.93;;;7.90;;
1010;SDS011;494;48.744;10.106;2022-12-07T12:20:00;15.03;;;7.67;;
1010;SDS011;494;48.744;10.106;2022-12-07T12:22:36;17.40;;;8.13;;
1010;SDS011;494;48.744;10.106;2022-12-07T12:25:13;17.93;;;8.37;;
1010;SDS011;494;48.744;10.106;2022-12-07T12:27:51;16.00;;;7.50;;
1010;SDS011;494;48.744;10.106;2022-12-07T12:30:32;16.47;;;7.77;;
1010;SDS011;494;48.744;10.106;2022-12-07T12:33:06;20.97;;;7.57;;
1010;SDS011;494;48.744;10.106;2022-12-07T12:35:44;15.23;;;7.13;;
1010;SDS011;494;48.744;10.106;2022-12-07T12:41:01;14.90;;;7.07;;
1010;SDS011;494;48.744;10.106;2022-12-07T12:46:37;15.10;;;7.70;;
1010;SDS011;494;48.744;10.106;2022-12-07T12:55:54;17.03;;;7.93;;
1010;SDS011;494;48.744;10.106;2022-12-07T13:02:05;15.80;;;7.37;;
1010;SDS011;494;48.744;10.106;2022-12-07T17:54:39;25.83;;;9.83;;
1010;SDS011;494;48.744;10.106;2022-12-07T17:57:24;18.33;;;9.20;;
1010;SDS011;494;48.744;10.106;2022-12-07T18:00:47;17.23;;;8.80;;
1010;SDS011;494;48.744;10.106;2022-12-07T18:04:23;19.77;;;9.10;;
1010;SDS011;494;48.744;10.106;2022-12-07T18:07:50;17.40;;;8.10;;
1010;SDS011;494;48.744;10.106;2022-12-07T18:11:00;18.37;;;9.13;;
1010;SDS011;494;48.744;10.106;2022-12-07T18:13:36;16.60;;;7.90;;
1010;SDS011;494;48.744;10.106;2022-12-07T18:16:16;14.73;;;7.50;;
1010;SDS011;494;48.744;10.106;2022-12-07T18:19:24;17.33;;;9.27;;
1010;SDS011;494;48.744;10.106;2022-12-07T18:22:16;15.90;;;8.13;;
1010;SDS011;494;48.744;10.106;2022-12-07T18:25:01;15.97;;;7.97;;
1010;SDS011;494;48.744;10.106;2022-12-07T18:27:48;16.73;;;8.20;;
1010;SDS011;494;48.744;10.106;2022-12-07T18:39:56;15.53;;;7.40;;
1010;SDS011;494;48.744;10.106;2022-12-07T18:42:58;17.73;;;9.30;;
1010;SDS011;494;48.744;10.106;2022-12-07T18:46:25;24.80;;;13.60;;
1010;SDS011;494;48.744;10.106;2022-12-07T18:49:27;49.07;;;29.60;;
1010;SDS011;494;48.744;10.106;2022-12-07T18:53:25;30.03;;;14.53;;
1010;SDS011;494;48.744;10.106;2022-12-07T18:57:05;49.70;;;26.13;;
1010;SDS011;494;48.744;10.106;2022-12-07T18:59:57;28.50;;;17.43;;
1010;SDS011;494;48.744;10.106;2022-12-07T19:03:39;32.53;;;19.60;;
1010;SDS011;494;48.744;10.106;2022-12-07T19:07:24;26.53;;;15.00;;
1010;SDS011;494;48.744;10.106;2022-12-07T19:10:58;45.27;;;22.20;;
1010;SDS011;494;48.744;10.106;2022-12-07T19:18:55;29.00;;;16.60;;
1010;SDS011;494;48.744;10.106;2022-12-07T21:25:56;18.17;;;9.57;;
1010;SDS011;494;48.744;10.106;2022-12-07T21:28:25;18.70;;;9.60;;
1010;SDS011;494;48.744;10.106;2022-12-07T21:30:55;22.93;;;9.80;;
1010;SDS011;494;48.744;10.106;2022-12-07T21:33:40;19.83;;;10.47;;
1010;SDS011;494;48.744;10.106;2022-12-07T21:36:10;22.33;;;10.17;;
1010;SDS011;494;48.744;10.106;2022-12-07T21:38:43;20.00;;;9.27;;
1010;SDS011;494;48.744;10.106;2022-12-07T21:41:12;18.60;;;9.07;;
1010;SDS011;494;48.744;10.106;2022-12-07T21:43:44;18.97;;;9.87;;
1010;SDS011;494;48.744;10.106;2022-12-07T21:46:15;17.33;;;8.20;;
1010;SDS011;494;48.744;10.106;2022-12-07T21:48:48;19.20;;;9.70;;
1010;SDS011;494;48.744;10.106;2022-12-07T21:51:21;18.83;;;11.40;;
1010;SDS011;494;48.744;10.106;2022-12-07T21:53:54;23.10;;;12.67;;
1010;SDS011;494;48.744;10.106;2022-12-07T21:56:26;21.97;;;12.53;;
1010;SDS011;494;48.744;10.106;2022-12-07T21:58:58;21.20;;;10.20;;
1010;SDS011;494;48.744;10.106;2022-12-07T22:01:30;21.80;;;10.80;;
1010;SDS011;494;48.744;10.106;2022-12-07T22:04:03;19.53;;;9.67;;
1010;SDS011;494;48.744;10.106;2022-12-07T22:06:34;19.47;;;9.03;;
1010;SDS011;494;48.744;10.106;2022-12-07T22:09:05;23.50;;;9.50;;
1010;SDS011;494;48.744;10.106;2022-12-07T22:11:34;20.03;;;9.23;;
1010;SDS011;494;48.744;10.106;2022-12-07T22:14:03;20.17;;;9.30;;
1010;SDS011;494;48.744;10.106;2022-12-07T22:16:51;20.37;;;8.60;;
1010;SDS011;494;48.744;10.106;2022-12-07T22:19:20;18.33;;;9.60;;
1010;SDS011;494;48.744;10.106;2022-12-07T22:21:49;20.40;;;9.40;;
1010;SDS011;494;48.744;10.106;2022-12-07T22:24:19;18.57;;;9.33;;
1010;SDS011;494;48.744;10.106;2022-12-07T22:26:49;20.60;;;9.43;;
1010;SDS011;494;48.744;10.106;2022-12-07T22:29:17;18.17;;;8.60;;
1010;SDS011;494;48.744;10.106;2022-12-07T22:31:49;22.23;;;9.87;;
1010;SDS011;494;48.744;10.106;2022-12-07T22:34:19;21.33;;;9.20;;
1010;SDS011;494;48.744;10.106;2022-12-07T22:36:49;21.07;;;9.17;;
1010;SDS011;494;48.744;10.106;2022-12-07T22:39:18;20.10;;;9.87;;
1010;SDS011;494;48.744;10.106;2022-12-07T22:41:51;16.27;;;8.03;;
1010;SDS011;494;48.744;10.106;2022-12-07T22:44:20;24.47;;;11.37;;
1010;SDS011;494;48.744;10.106;2022-12-07T22:46:49;22.67;;;10.83;;
1010;SDS011;494;48.744;10.106;2022-12-07T22:49:19;18.03;;;8.90;;
1010;SDS011;494;48.744;10.106;2022-12-07T22:51:54;17.93;;;8.60;;
1010;SDS011;494;48.744;10.106;2022-12-07T22:54:24;18.77;;;8.43;;
1010;SDS011;494;48.744;10.106;2022-12-07T22:56:56;19.83;;;8.50;;
1010;SDS011;494;48.744;10.106;2022-12-07T22:59:24;17.97;;;8.27;;
1010;SDS011;494;48.744;10.106;2022-12-07T23:01:53;19.17;;;9.27;;
1010;SDS011;494;48.744;10.106;2022-12-07T23:04:24;20.23;;;9.53;;
1010;SDS011;494;48.744;10.106;2022-12-07T23:06:54;22.87;;;12.13;;
1010;SDS011;494;48.744;10.106;2022-12-07T23:09:27;24.13;;;10.67;;
1010;SDS011;494;48.744;10.106;2022-12-07T23:11:57;21.23;;;10.30;;
1010;SDS011;494;48.744;10.106;2022-12-07T23:14:43;20.57;;;9.70;;
1010;SDS011;494;48.744;10.106;2022-12-07T23:17:12;19.77;;;9.30;;
1010;SDS011;494;48.744;10.106;2022-12-07T23:19:41;18.17;;;8.40;;
1010;SDS011;494;48.744;10.106;2022-12-07T23:22:10;19.97;;;9.47;;
1010;SDS011;494;48.744;10.106;2022-12-07T23:24:40;17.70;;;9.20;;
1010;SDS011;494;48.744;10.106;2022-12-07T23:27:09;19.77;;;9.50;;
1010;SDS011;494;48.744;10.106;2022-12-07T23:29:38;19.53;;;9.57;;
1010;SDS011;494;48.744;10.106;2022-12-07T23:32:07;20.80;;;10.03;;
1010;SDS011;494;48.744;10.106;2022-12-07T23:34:36;22.17;;;10.97;;
1010;SDS011;494;48.744;10.106;2022-12-07T23:37:05;26.57;;;12.80;;
1010;SDS011;494;48.744;10.106;2022-12-07T23:39:35;27.47;;;12.30;;
1010;SDS011;494;48.744;10.106;2022-12-07T23:42:05;27.20;;;12.70;;
1010;SDS011;494;48.744;10.106;2022-12-07T23:44:34;27.87;;;14.00;;
1010;SDS011;494;48.744;10.106;2022-12-07T23:47:03;31.00;;;13.37;;
1010;SDS011;494;48.744;10.106;2022-12-07T23:49:32;30.43;;;13.67;;
1010;SDS011;494;48.744;10.106;2022-12-07T23:52:01;29.77;;;13.37;;
1010;SDS011;494;48.744;10.106;2022-12-07T23:54:30;24.47;;;12.80;;
1010;SDS011;494;48.744;10.106;2022-12-07T23:56:59;27.03;;;13.30;;
1010;SDS011;494;48.744;10.106;2022-12-07T23:59:29;20.60;;;10.57;;
